Share

Oden, AR (71961)

11:22 AM CDT on April 23, 2014 (GMT -0500)
Mount Ida (KMWT) Elev 702 ft | 34.55 °N, 93.58 °W | Change Station

Current weather conditions updated 29 minutes ago

Clear
Clear
69 °F
Feels Like 69 °F
N
5
Wind Variable Wind from Variable
Sunrise 6:33 AM
Sunset 7:53 PM
Moon Waning Crescent

Today is forecast to be nearly the same temperature as yesterday.

Pressure 29.99 in
Visibility 10.0 miles
Clouds Clear
Dew Point 48 °F
Humidity 47%
Rainfall 0.00 in
Snow Depth Not available.
UV 8 out of 16
Pollen 9.30 out of 12
Air Quality Not available.
Flu Activity Sporadic
METAR KMWT 231553Z AUTO VRB04KT 10SM CLR 21/09 A3000 RMK AO2 SLP154 T02060089

More Conditions Fewer Conditions

Pressure 29.99 in
Visibility 10.0 miles
Clouds Clear
Dew Point 48 °F
Humidity 47%
Rainfall 0.00 in
Snow Depth Not available.
UV 8 out of 16
Pollen 9.30 out of 12
Air Quality Not available.
Flu Activity Sporadic
METAR KMWT 231553Z AUTO VRB04KT 10SM CLR 21/09 A3000 RMK AO2 SLP154 T02060089

More Conditions Fewer Conditions

10-Day Weather Forecast

Almanac

Astronomy

Apr. 23, 2014 Rise Set
Actual Time 6:33 AM CDT 7:53 PM CDT
Civil Twilight 6:07 AM CDT 8:20 PM CDT
Nautical Twilight 5:36 AM CDT 8:51 PM CDT
Astronomical Twilight 5:03 AM CDT 9:24 PM CDT
Moon 2:51 AM CDT 2:17 PM CDT
Length of Visible Light 14h 12m
Length of Day
13h 19m
Tomorrow will be 1m 57s longer.
Waning Crescent, 35% of the Moon is Illuminated
Today
Waning Crescent
Apr 29
New
May 6
First Quarter
May 14
Full
May 21
Last Quarter

Today's Extremes

State Highs State Lows

Community

  • spring flowers
    spring flowers
  • Earth Day Spectrum Ove' Blue
    Earth Day Spectrum Ove' Blue
  • BARN B&W
    BARN B&W
  • April Sunset
    April Sunset
  • Waiting..
    Waiting..

WunderPhotos

Upload Photos

1,704,322 photos uploaded!

WunderBlogs® & News

Nearby

Snow Depth

Station Depth Elevation
No new snow has been reported.

Coastal Water Temperatures

Place Temperature
No Stations Reporting

Earthquake Activity

City Distance Mag. Time & Date
No recent earthquake activity has been reported nearby.
Minimum magnitude displayed is 2.5.

Nearby Weather Stations

Station Location Temp. Heat Index Dew Point Humidity Wind Precip. Elev Updated Type
Caddo River, Caddo Gap, AR 73.6 °F 77 °F 54 °F 51% SE  at  5.3 mph - / hr 587 ft 11:07 AM CDT Normal

Show More Stations Show Fewer Stations

What do you think?

We're not finished. Please let us know what you like, what you don't like, and what you are still missing.